createdAt,value
2018-05-21T00:01:44.555Z,16.20
2018-05-21T00:04:11.964Z,16.10
2018-05-21T00:06:39.505Z,16.10
2018-05-21T00:09:06.918Z,16.00
2018-05-21T00:11:34.363Z,15.90
2018-05-21T00:14:02.182Z,15.80
2018-05-21T00:16:29.605Z,15.80
2018-05-21T00:18:56.990Z,15.70
2018-05-21T00:21:24.434Z,15.70
2018-05-21T00:23:51.856Z,15.60
2018-05-21T00:26:19.667Z,15.60
2018-05-21T00:28:47.172Z,15.50
2018-05-21T00:31:14.990Z,15.40
2018-05-21T00:33:42.400Z,15.40
2018-05-21T00:36:10.604Z,15.30
2018-05-21T00:38:38.023Z,15.30
2018-05-21T00:41:05.436Z,15.20
2018-05-21T00:43:32.881Z,15.20
2018-05-21T00:46:00.419Z,15.10
2018-05-21T00:48:27.866Z,15.00
2018-05-21T00:50:55.715Z,15.00
2018-05-21T00:53:23.291Z,14.90
2018-05-21T00:55:50.703Z,14.90
2018-05-21T00:58:18.123Z,14.80
2018-05-21T01:00:45.660Z,14.70
2018-05-21T01:03:13.093Z,14.40
2018-05-21T01:05:40.502Z,14.40
2018-05-21T01:08:11.750Z,14.50
2018-05-21T01:10:39.164Z,14.40
2018-05-21T01:13:06.692Z,14.50
2018-05-21T01:15:34.172Z,14.10
2018-05-21T01:18:01.656Z,14.20
2018-05-21T01:20:29.476Z,14.20
2018-05-21T01:22:57.531Z,14.20
2018-05-21T01:25:25.517Z,14.20
2018-05-21T01:27:52.949Z,14.20
2018-05-21T01:30:20.385Z,14.20
2018-05-21T01:32:48.348Z,14.10
2018-05-21T01:35:15.772Z,14.10
2018-05-21T01:37:43.344Z,14.10
2018-05-21T01:40:10.753Z,14.00
2018-05-21T01:42:38.206Z,14.00
2018-05-21T01:45:05.631Z,14.00
2018-05-21T01:47:33.452Z,14.00
2018-05-21T01:50:00.860Z,14.00
2018-05-21T01:52:28.661Z,13.90
2018-05-21T01:54:56.146Z,13.90
2018-05-21T01:57:23.523Z,13.90
2018-05-21T01:59:51.017Z,13.70
2018-05-21T02:02:18.852Z,13.70
2018-05-21T02:04:46.268Z,13.70
2018-05-21T02:07:13.643Z,13.70
2018-05-21T02:09:41.103Z,13.60
2018-05-21T02:12:08.548Z,13.70
2018-05-21T02:14:36.008Z,13.60
2018-05-21T02:17:03.402Z,13.60
2018-05-21T02:19:30.776Z,13.60
2018-05-21T02:21:58.615Z,13.50
2018-05-21T02:24:25.993Z,13.50
2018-05-21T02:26:53.791Z,13.50
2018-05-21T02:29:21.274Z,13.50
2018-05-21T02:31:48.667Z,13.40
2018-05-21T02:34:16.484Z,13.40
2018-05-21T02:36:43.845Z,13.30
2018-05-21T02:39:11.315Z,13.30
2018-05-21T02:41:38.744Z,13.30
2018-05-21T02:44:06.145Z,13.20
2018-05-21T02:46:33.536Z,13.20
2018-05-21T02:49:01.081Z,13.10
2018-05-21T02:51:28.860Z,13.10
2018-05-21T02:53:56.258Z,13.10
2018-05-21T02:56:23.753Z,13.00
2018-05-21T02:58:51.527Z,13.00
2018-05-21T03:01:19.389Z,13.00
2018-05-21T03:03:47.150Z,12.90
2018-05-21T03:06:14.579Z,12.90
2018-05-21T03:08:41.949Z,12.90
2018-05-21T03:11:09.365Z,12.80
2018-05-21T03:13:36.742Z,12.80
2018-05-21T03:16:04.111Z,12.80
2018-05-21T03:18:31.475Z,12.80
2018-05-21T03:20:58.845Z,12.70
2018-05-21T03:23:26.613Z,12.70
2018-05-21T03:25:54.430Z,12.60
2018-05-21T03:28:21.907Z,12.60
2018-05-21T03:30:49.291Z,12.60
2018-05-21T03:33:16.658Z,12.50
2018-05-21T03:35:44.043Z,12.50
2018-05-21T03:38:11.415Z,12.50
2018-05-21T03:40:38.783Z,12.50
2018-05-21T03:43:06.158Z,12.50
2018-05-21T03:45:33.665Z,12.40
2018-05-21T03:48:01.023Z,12.40
2018-05-21T03:50:28.379Z,12.40
2018-05-21T03:52:55.856Z,12.40
2018-05-21T03:55:23.274Z,12.40
2018-05-21T03:57:50.634Z,12.40
2018-05-21T04:00:34.896Z,12.40
2018-05-21T04:03:20.036Z,12.40
2018-05-21T04:05:47.929Z,12.40
2018-05-21T04:08:15.355Z,12.40
2018-05-21T04:10:43.107Z,12.50
2018-05-21T04:13:10.542Z,12.50
2018-05-21T04:15:37.903Z,12.60
2018-05-21T04:18:05.386Z,12.70
2018-05-21T04:20:33.133Z,12.80
2018-05-21T04:23:00.551Z,12.90
2018-05-21T04:25:27.936Z,13.00
2018-05-21T04:27:55.363Z,13.10
2018-05-21T04:30:22.853Z,13.20
2018-05-21T04:32:50.258Z,13.30
2018-05-21T04:35:17.639Z,13.40
2018-05-21T04:37:44.992Z,13.50
2018-05-21T04:40:12.361Z,13.60
2018-05-21T04:42:40.151Z,13.80
2018-05-21T04:45:07.506Z,13.90
2018-05-21T04:47:34.873Z,14.00
2018-05-21T04:50:02.971Z,14.30
2018-05-21T04:52:30.324Z,14.50
2018-05-21T04:54:57.675Z,14.70
2018-05-21T04:57:25.064Z,15.10
2018-05-21T04:59:52.422Z,15.20
2018-05-21T05:02:19.784Z,15.50
2018-05-21T05:04:47.165Z,15.90
2018-05-21T05:07:14.527Z,16.10
2018-05-21T05:09:41.918Z,16.50
2018-05-21T05:12:09.756Z,16.50
2018-05-21T05:14:37.528Z,16.70
2018-05-21T05:17:05.325Z,17.10
2018-05-21T05:19:32.686Z,17.60
2018-05-21T05:22:00.042Z,18.00
2018-05-21T05:24:27.428Z,18.20
2018-05-21T05:26:54.797Z,18.60
2018-05-21T05:29:22.157Z,19.00
2018-05-21T05:31:49.530Z,19.30
2018-05-21T05:34:17.603Z,19.90
2018-05-21T05:36:45.520Z,20.40
2018-05-21T05:39:12.884Z,20.60
2018-05-21T05:41:40.663Z,20.70
2018-05-21T05:44:08.027Z,21.00
2018-05-21T05:46:35.388Z,21.10
2018-05-21T05:49:03.193Z,21.50
2018-05-21T05:51:30.552Z,22.40
2018-05-21T05:53:57.925Z,22.40
2018-05-21T05:56:25.329Z,22.80
2018-05-21T05:58:53.080Z,22.90
2018-05-21T06:01:20.492Z,23.30
2018-05-21T06:03:47.842Z,23.80
2018-05-21T06:06:15.223Z,23.90
2018-05-21T06:08:42.593Z,24.00
2018-05-21T06:11:10.447Z,24.50
2018-05-21T06:13:37.824Z,24.90
2018-05-21T06:16:05.293Z,25.20
2018-05-21T06:18:32.764Z,25.60
2018-05-21T06:21:00.520Z,25.50
2018-05-21T06:23:28.269Z,25.30
2018-05-21T06:25:55.735Z,25.70
2018-05-21T06:28:23.030Z,26.10
2018-05-21T06:30:50.463Z,25.60
2018-05-21T06:33:18.227Z,26.70
2018-05-21T06:35:46.025Z,27.30
2018-05-21T06:38:13.405Z,27.50
2018-05-21T06:40:40.770Z,27.10
2018-05-21T06:43:09.560Z,27.30
2018-05-21T06:45:36.931Z,27.60
2018-05-21T06:48:04.309Z,28.10
2018-05-21T06:50:31.723Z,27.80
2018-05-21T06:52:59.087Z,28.30
2018-05-21T06:55:26.472Z,28.90
2018-05-21T06:57:54.276Z,28.60
2018-05-21T07:00:22.036Z,29.00
2018-05-21T07:02:49.511Z,29.00
2018-05-21T07:05:16.903Z,29.40
2018-05-21T07:07:44.730Z,29.40
2018-05-21T07:10:12.157Z,29.10
2018-05-21T07:12:40.049Z,29.20
2018-05-21T07:15:07.440Z,29.30
2018-05-21T07:17:34.895Z,29.30
2018-05-21T07:20:02.350Z,29.70
2018-05-21T07:22:29.825Z,30.50
2018-05-21T07:24:58.896Z,30.60
2018-05-21T07:27:26.446Z,30.50
2018-05-21T07:29:53.932Z,31.00
2018-05-21T07:32:21.788Z,31.40
2018-05-21T07:34:49.264Z,32.20
2018-05-21T07:37:17.542Z,33.70
2018-05-21T07:39:45.324Z,33.30
2018-05-21T07:42:12.874Z,32.70
2018-05-21T07:44:42.718Z,32.80
2018-05-21T07:47:10.103Z,33.10
2018-05-21T07:49:37.665Z,33.10
2018-05-21T07:52:05.170Z,32.60
2018-05-21T07:54:32.724Z,33.50
2018-05-21T07:57:00.767Z,33.60
2018-05-21T07:59:28.247Z,34.10
2018-05-21T08:01:56.054Z,34.40
2018-05-21T08:04:23.814Z,34.20
2018-05-21T08:06:54.783Z,34.10
2018-05-21T08:09:22.242Z,34.50
2018-05-21T08:11:49.660Z,34.20
2018-05-21T08:14:17.092Z,34.10
2018-05-21T08:16:44.525Z,34.30
2018-05-21T08:19:12.347Z,34.90
2018-05-21T08:21:39.834Z,34.40
2018-05-21T08:24:07.350Z,34.50
2018-05-21T08:26:37.982Z,34.50
2018-05-21T08:29:05.453Z,35.10
2018-05-21T08:31:32.931Z,35.00
2018-05-21T08:34:00.500Z,34.80
2018-05-21T08:36:28.368Z,35.90
2018-05-21T08:38:55.838Z,35.40
2018-05-21T08:41:23.281Z,34.90
2018-05-21T08:43:50.715Z,34.70
2018-05-21T08:46:18.230Z,34.80
2018-05-21T08:48:45.672Z,35.10
2018-05-21T08:51:13.283Z,35.20
2018-05-21T08:53:40.713Z,34.90
2018-05-21T08:56:08.643Z,34.90
2018-05-21T08:58:36.056Z,35.50
2018-05-21T09:01:03.589Z,35.50
2018-05-21T09:03:31.426Z,35.30
2018-05-21T09:05:58.842Z,35.30
2018-05-21T09:08:26.250Z,36.60
2018-05-21T09:10:53.776Z,36.30
2018-05-21T09:13:21.189Z,36.80
2018-05-21T09:15:49.002Z,36.30
2018-05-21T09:18:16.753Z,36.80
2018-05-21T09:20:44.156Z,37.00
2018-05-21T09:23:11.524Z,36.60
2018-05-21T09:25:38.893Z,36.10
2018-05-21T09:28:06.661Z,36.70
2018-05-21T09:30:34.462Z,37.30
2018-05-21T09:33:01.803Z,36.80
2018-05-21T09:35:29.159Z,36.60
2018-05-21T09:37:56.554Z,36.60
2018-05-21T09:40:23.912Z,36.60
2018-05-21T09:42:51.282Z,36.40
2018-05-21T09:45:18.679Z,36.40
2018-05-21T09:47:46.028Z,36.10
2018-05-21T09:50:13.490Z,36.80
2018-05-21T09:52:40.858Z,36.80
2018-05-21T09:55:08.275Z,36.60
2018-05-21T09:57:36.123Z,36.90
2018-05-21T10:00:03.603Z,37.20
2018-05-21T10:02:31.474Z,37.30
2018-05-21T10:04:58.882Z,37.40
2018-05-21T10:07:26.427Z,37.60
2018-05-21T10:09:53.928Z,37.10
2018-05-21T10:12:21.411Z,36.70
2018-05-21T10:14:49.181Z,36.80
2018-05-21T10:17:16.670Z,36.90
2018-05-21T10:19:44.131Z,36.80
2018-05-21T10:22:15.139Z,37.10
2018-05-21T10:24:42.684Z,37.00
2018-05-21T10:27:10.368Z,36.90
2018-05-21T10:29:37.806Z,37.10
2018-05-21T10:32:05.264Z,37.00
2018-05-21T10:34:33.085Z,37.20
2018-05-21T10:37:00.501Z,37.20
2018-05-21T10:39:27.976Z,37.10
2018-05-21T10:41:55.331Z,37.30
2018-05-21T10:44:22.779Z,37.10
2018-05-21T10:46:50.161Z,37.10
2018-05-21T10:49:17.550Z,37.50
2018-05-21T10:51:44.950Z,37.40
2018-05-21T10:54:13.445Z,37.30
2018-05-21T10:56:40.825Z,37.30
2018-05-21T10:59:08.297Z,37.60
2018-05-21T11:01:36.210Z,37.60
2018-05-21T11:04:03.723Z,37.50
2018-05-21T11:06:31.156Z,37.50
2018-05-21T11:08:58.609Z,37.30
2018-05-21T11:11:25.966Z,37.30
2018-05-21T11:13:53.476Z,37.30
2018-05-21T11:16:20.857Z,37.30
2018-05-21T11:18:48.256Z,37.10
2018-05-21T11:21:15.654Z,37.10
2018-05-21T11:23:43.435Z,37.30
2018-05-21T11:26:10.790Z,37.30
2018-05-21T11:28:38.240Z,37.30
2018-05-21T11:31:07.597Z,37.20
2018-05-21T11:33:34.971Z,36.90
2018-05-21T11:36:02.908Z,37.00
2018-05-21T11:38:30.262Z,37.00
2018-05-21T11:40:57.653Z,37.10
2018-05-21T11:43:25.020Z,36.70
2018-05-21T11:45:52.808Z,36.90
2018-05-21T11:48:20.175Z,37.10
2018-05-21T11:50:47.688Z,37.20
2018-05-21T11:53:15.036Z,37.10
2018-05-21T11:55:42.809Z,37.20
2018-05-21T11:58:10.590Z,36.90
2018-05-21T12:00:38.436Z,36.90
2018-05-21T12:03:05.821Z,36.80
2018-05-21T12:05:33.168Z,36.80
2018-05-21T12:08:02.984Z,36.80
2018-05-21T12:10:30.356Z,36.80
2018-05-21T12:12:57.746Z,36.40
2018-05-21T12:15:25.162Z,36.90
2018-05-21T12:17:52.540Z,37.10
2018-05-21T12:20:20.655Z,37.10
2018-05-21T12:22:48.158Z,37.00
2018-05-21T12:25:15.506Z,36.50
2018-05-21T12:27:43.144Z,36.80
2018-05-21T12:30:10.888Z,37.00
2018-05-21T12:32:38.591Z,37.00
2018-05-21T12:35:06.163Z,36.80
2018-05-21T12:37:33.515Z,36.70
2018-05-21T12:40:00.880Z,36.90
2018-05-21T12:42:28.333Z,36.60
2018-05-21T12:44:55.696Z,36.30
2018-05-21T12:47:23.106Z,37.00
2018-05-21T12:49:50.950Z,37.80
2018-05-21T12:52:18.386Z,37.30
2018-05-21T12:54:45.886Z,36.00
2018-05-21T12:57:13.355Z,36.50
2018-05-21T12:59:41.109Z,37.00
2018-05-21T13:02:08.957Z,36.40
2018-05-21T13:04:36.314Z,36.00
2018-05-21T13:07:03.799Z,36.70
2018-05-21T13:09:31.568Z,36.00
2018-05-21T13:11:59.332Z,35.80
2018-05-21T13:14:27.073Z,36.70
2018-05-21T13:16:54.505Z,37.00
2018-05-21T13:19:21.894Z,37.70
2018-05-21T13:21:49.747Z,37.80
2018-05-21T13:24:17.212Z,37.60
2018-05-21T13:26:44.900Z,37.50
2018-05-21T13:29:12.670Z,37.70
2018-05-21T13:31:40.078Z,37.70
2018-05-21T13:34:07.463Z,37.90
2018-05-21T13:36:35.235Z,38.20
2018-05-21T13:39:03.108Z,38.30
2018-05-21T13:41:30.469Z,37.80
2018-05-21T13:43:57.837Z,38.20
2018-05-21T13:46:25.188Z,37.40
2018-05-21T13:48:53.104Z,36.90
2018-05-21T13:51:20.492Z,36.80
2018-05-21T13:53:48.266Z,36.90
2018-05-21T13:56:15.748Z,37.50
2018-05-21T13:58:43.150Z,36.80
2018-05-21T14:01:10.505Z,37.20
2018-05-21T14:03:37.910Z,37.40
2018-05-21T14:06:05.354Z,37.90
2018-05-21T14:08:32.707Z,38.00
2018-05-21T14:11:00.080Z,38.20
2018-05-21T14:13:27.463Z,38.10
2018-05-21T14:15:54.862Z,38.20
2018-05-21T14:18:22.618Z,38.30
2018-05-21T14:20:50.374Z,38.80
2018-05-21T14:23:17.769Z,38.80
2018-05-21T14:25:45.249Z,38.10
2018-05-21T14:28:12.622Z,38.60
2018-05-21T14:30:39.983Z,38.70
2018-05-21T14:33:07.389Z,38.60
2018-05-21T14:35:34.831Z,38.60
2018-05-21T14:38:02.598Z,39.20
2018-05-21T14:40:30.379Z,39.30
2018-05-21T14:42:57.867Z,39.30
2018-05-21T14:45:25.223Z,39.30
2018-05-21T14:47:52.675Z,38.60
2018-05-21T14:50:20.046Z,38.70
2018-05-21T14:52:48.522Z,38.90
2018-05-21T14:55:18.372Z,39.10
2018-05-21T14:57:45.765Z,38.90
2018-05-21T15:00:13.137Z,38.00
2018-05-21T15:02:40.495Z,37.40
2018-05-21T15:05:07.869Z,37.50
2018-05-21T15:07:35.317Z,38.20
2018-05-21T15:10:02.760Z,38.60
2018-05-21T15:12:30.235Z,39.10
2018-05-21T15:14:57.604Z,39.10
2018-05-21T15:17:24.955Z,39.40
2018-05-21T15:19:52.437Z,38.50
2018-05-21T15:22:20.306Z,37.90
2018-05-21T15:24:47.598Z,38.20
2018-05-21T15:27:14.960Z,38.20
2018-05-21T15:29:42.312Z,37.70
2018-05-21T15:32:09.680Z,38.00
2018-05-21T15:34:37.053Z,38.80
2018-05-21T15:37:04.409Z,39.30
2018-05-21T15:39:31.787Z,39.40
2018-05-21T15:41:59.160Z,39.10
2018-05-21T15:44:26.912Z,39.20
2018-05-21T15:46:54.675Z,39.20
2018-05-21T15:49:22.424Z,39.00
2018-05-21T15:51:49.822Z,39.00
2018-05-21T15:54:17.182Z,38.90
2018-05-21T15:56:44.573Z,39.10
2018-05-21T15:59:11.919Z,39.30
2018-05-21T16:01:39.290Z,39.00
2018-05-21T16:04:06.674Z,38.40
2018-05-21T16:06:34.424Z,38.70
2018-05-21T16:09:01.787Z,39.00
2018-05-21T16:11:29.633Z,38.70
2018-05-21T16:13:56.982Z,38.70
2018-05-21T16:16:24.336Z,38.80
2018-05-21T16:18:51.744Z,38.70
2018-05-21T16:21:19.090Z,38.70
2018-05-21T16:23:46.830Z,38.50
2018-05-21T16:26:14.207Z,38.60
2018-05-21T16:28:41.986Z,38.10
2018-05-21T16:31:09.473Z,38.50
2018-05-21T16:33:36.819Z,38.70
2018-05-21T16:36:04.191Z,38.70
2018-05-21T16:38:31.560Z,38.60
2018-05-21T16:40:58.948Z,38.40
2018-05-21T16:43:26.305Z,38.30
2018-05-21T16:45:54.098Z,37.90
2018-05-21T16:48:21.879Z,38.00
2018-05-21T16:50:49.244Z,38.20
2018-05-21T16:53:18.641Z,38.30
2018-05-21T16:55:46.011Z,38.30
2018-05-21T16:58:13.438Z,38.40
2018-05-21T17:00:40.796Z,38.30
2018-05-21T17:03:08.167Z,38.10
2018-05-21T17:05:35.537Z,38.10
2018-05-21T17:08:02.902Z,38.00
2018-05-21T17:10:30.287Z,38.00
2018-05-21T17:12:58.043Z,38.20
2018-05-21T17:15:25.490Z,38.10
2018-05-21T17:17:52.857Z,37.80
2018-05-21T17:20:20.636Z,37.50
2018-05-21T17:22:48.806Z,37.50
2018-05-21T17:25:16.668Z,37.70
2018-05-21T17:27:44.417Z,37.50
2018-05-21T17:30:12.213Z,37.50
2018-05-21T17:32:39.579Z,37.40
2018-05-21T17:35:06.939Z,37.40
2018-05-21T17:37:34.326Z,37.30
2018-05-21T17:40:02.103Z,37.30
2018-05-21T17:42:29.516Z,37.20
2018-05-21T17:44:57.238Z,37.00
2018-05-21T17:47:29.788Z,36.80
2018-05-21T17:49:57.139Z,36.80
2018-05-21T17:52:24.702Z,36.70
2018-05-21T17:54:52.078Z,36.50
2018-05-21T17:57:19.436Z,36.40
2018-05-21T17:59:47.092Z,35.50
2018-05-21T18:02:14.444Z,35.60
2018-05-21T18:04:41.800Z,35.50
2018-05-21T18:07:09.186Z,35.50
2018-05-21T18:09:36.951Z,35.30
2018-05-21T18:12:05.159Z,35.40
2018-05-21T18:14:32.735Z,35.50
2018-05-21T18:17:00.110Z,35.40
2018-05-21T18:19:27.468Z,35.30
2018-05-21T18:21:54.849Z,35.00
2018-05-21T18:24:22.673Z,34.80
2018-05-21T18:26:50.062Z,34.80
2018-05-21T18:29:17.812Z,34.50
2018-05-21T18:31:45.600Z,34.50
2018-05-21T18:34:13.347Z,34.30
2018-05-21T18:36:40.693Z,34.10
2018-05-21T18:39:08.061Z,33.80
2018-05-21T18:41:35.453Z,33.70
2018-05-21T18:44:02.842Z,33.50
2018-05-21T18:46:30.238Z,33.20
2018-05-21T18:48:58.004Z,33.10
2018-05-21T18:51:25.824Z,32.90
2018-05-21T18:53:53.206Z,32.90
2018-05-21T18:56:20.593Z,32.70
2018-05-21T18:58:48.004Z,32.50
2018-05-21T19:01:15.361Z,32.20
2018-05-21T19:03:42.704Z,32.00
2018-05-21T19:06:10.105Z,31.80
2018-05-21T19:08:37.875Z,31.60
2018-05-21T19:11:05.876Z,31.40
2018-05-21T19:13:33.223Z,31.30
2018-05-21T19:16:00.596Z,31.10
2018-05-21T19:18:28.990Z,30.90
2018-05-21T19:20:56.375Z,30.80
2018-05-21T19:23:24.595Z,30.50
2018-05-21T19:25:52.129Z,30.30
2018-05-21T19:28:20.012Z,30.10
2018-05-21T19:30:47.647Z,30.00
2018-05-21T19:33:15.252Z,29.70
2018-05-21T19:35:42.648Z,29.50
2018-05-21T19:38:10.123Z,29.40
2018-05-21T19:40:38.136Z,29.20
2018-05-21T19:43:05.516Z,29.00
2018-05-21T19:45:33.112Z,28.80
2018-05-21T19:48:00.772Z,28.60
2018-05-21T19:50:28.540Z,28.40
2018-05-21T19:52:56.314Z,28.30
2018-05-21T19:55:24.039Z,28.10
2018-05-21T19:57:51.460Z,28.00
2018-05-21T20:00:18.833Z,27.80
2018-05-21T20:02:46.307Z,27.60
2018-05-21T20:05:13.703Z,27.50
2018-05-21T20:07:41.516Z,27.30
2018-05-21T20:10:09.114Z,27.20
2018-05-21T20:12:36.470Z,27.00
2018-05-21T20:15:03.849Z,26.90
2018-05-21T20:17:31.410Z,26.80
2018-05-21T20:19:58.972Z,26.60
2018-05-21T20:22:26.414Z,26.40
2018-05-21T20:24:54.330Z,26.30
2018-05-21T20:27:22.143Z,26.10
2018-05-21T20:29:49.904Z,26.00
2018-05-21T20:32:17.303Z,25.90
2018-05-21T20:34:44.698Z,25.80
2018-05-21T20:37:12.112Z,25.60
2018-05-21T20:39:39.490Z,25.50
2018-05-21T20:42:06.900Z,25.40
2018-05-21T20:44:34.699Z,25.30
2018-05-21T20:47:02.086Z,25.10
2018-05-21T20:49:29.526Z,25.00
2018-05-21T20:51:57.044Z,24.90
2018-05-21T20:54:24.563Z,24.80
2018-05-21T20:56:51.929Z,24.70
2018-05-21T20:59:19.306Z,24.60
2018-05-21T21:01:46.854Z,24.50
2018-05-21T21:04:14.679Z,24.40
2018-05-21T21:06:42.148Z,24.30
2018-05-21T21:09:09.651Z,24.20
2018-05-21T21:11:38.391Z,24.00
2018-05-21T21:14:05.777Z,24.00
2018-05-21T21:16:33.608Z,23.80
2018-05-21T21:19:01.279Z,23.80
2018-05-21T21:21:28.739Z,23.70
2018-05-21T21:23:56.194Z,23.60
2018-05-21T21:26:23.589Z,23.50
2018-05-21T21:28:54.609Z,23.40
2018-05-21T21:31:22.001Z,23.30
2018-05-21T21:33:49.358Z,23.10
2018-05-21T21:36:16.718Z,23.10
2018-05-21T21:38:44.240Z,23.00
2018-05-21T21:41:11.634Z,22.90
2018-05-21T21:43:39.010Z,22.90
2018-05-21T21:46:06.370Z,22.80
2018-05-21T21:48:33.765Z,22.80
2018-05-21T21:51:01.173Z,22.60
2018-05-21T21:53:28.533Z,22.50
2018-05-21T21:55:55.891Z,22.50
2018-05-21T21:58:23.500Z,22.40
2018-05-21T22:00:51.485Z,22.40
2018-05-21T22:03:18.890Z,22.30
2018-05-21T22:05:46.258Z,22.20
2018-05-21T22:08:13.637Z,22.10
2018-05-21T22:10:41.404Z,22.10
2018-05-21T22:13:09.214Z,22.00
2018-05-21T22:15:36.628Z,21.90
2018-05-21T22:18:04.284Z,21.80
2018-05-21T22:20:32.048Z,21.70
2018-05-21T22:22:59.933Z,21.60
2018-05-21T22:25:27.273Z,21.50
2018-05-21T22:27:55.195Z,21.50
2018-05-21T22:30:22.559Z,21.40
2018-05-21T22:32:50.028Z,21.30
2018-05-21T22:35:17.412Z,21.20
2018-05-21T22:37:45.198Z,21.10
2018-05-21T22:40:12.569Z,21.10
2018-05-21T22:42:40.395Z,21.00
2018-05-21T22:45:08.201Z,20.90
2018-05-21T22:47:36.043Z,20.80
2018-05-21T22:50:06.123Z,20.70
2018-05-21T22:52:33.813Z,20.70
2018-05-21T22:55:01.963Z,20.60
2018-05-21T22:57:29.321Z,20.60
2018-05-21T22:59:56.670Z,20.40
2018-05-21T23:02:24.084Z,20.30
2018-05-21T23:04:51.462Z,20.20
2018-05-21T23:07:18.888Z,20.20
2018-05-21T23:09:46.254Z,20.10
2018-05-21T23:12:13.622Z,20.00
2018-05-21T23:14:40.998Z,19.90
2018-05-21T23:17:08.353Z,19.90
2018-05-21T23:19:35.814Z,19.80
2018-05-21T23:22:03.325Z,19.70
2018-05-21T23:24:30.700Z,19.70
2018-05-21T23:26:58.057Z,19.70
2018-05-21T23:29:25.480Z,19.60
2018-05-21T23:31:53.262Z,19.50
2018-05-21T23:34:20.727Z,19.50
2018-05-21T23:36:48.147Z,19.40
2018-05-21T23:39:16.014Z,19.30
2018-05-21T23:41:43.928Z,19.20
2018-05-21T23:44:15.342Z,19.10
2018-05-21T23:46:43.211Z,19.00
2018-05-21T23:49:10.657Z,19.00
2018-05-21T23:51:38.217Z,18.90
2018-05-21T23:54:05.686Z,18.80
2018-05-21T23:56:33.571Z,18.70
2018-05-21T23:59:00.939Z,18.70
